Time;durP1;ratioP1;P1;durP2;ratioP2;P2;SDS_P1;SDS_P2;PMS_P1;PMS_P2;Temp;Humidity;BMP_temperature;BMP_pressure;BME280_temperature;BME280_humidity;BME280_pressure;Samples;Min_cycle;Max_cycle;Signal;HPM_P1;HPM_P2
2022/12/13 00:01:28;;;;;;;19.27;13.80;;;;;;;;;;739351;189;917077;-60
2022/12/13 00:03:55;;;;;;;22.17;13.93;;;;;;;;;;738305;188;918882;-59
2022/12/13 00:06:21;;;;;;;24.67;14.57;;;;;;;;;;747306;188;919131;-58
2022/12/13 00:08:47;;;;;;;24.00;17.13;;;;;;;;;;737565;188;919278;-59
2022/12/13 00:11:13;;;;;;;22.93;15.03;;;;;;;;;;738521;188;918719;-59
2022/12/13 00:13:38;;;;;;;24.40;16.40;;;;;;;;;;737675;188;917188;-58
2022/12/13 00:16:05;;;;;;;23.10;15.80;;;;;;;;;;732327;189;916524;-59
2022/12/13 00:18:31;;;;;;;26.35;16.70;;;;;;;;;;736788;187;920469;-58
2022/12/13 00:20:57;;;;;;;23.90;16.37;;;;;;;;;;745302;187;914185;-59
2022/12/13 00:23:22;;;;;;;39.30;18.67;;;;;;;;;;739420;187;904841;-60
2022/12/13 00:25:48;;;;;;;26.45;16.10;;;;;;;;;;741099;188;918445;-58
2022/12/13 00:28:14;;;;;;;27.27;18.77;;;;;;;;;;727105;191;924194;-60
2022/12/13 00:30:40;;;;;;;25.50;14.87;;;;;;;;;;744762;188;919962;-58
2022/12/13 00:33:06;;;;;;;24.20;16.40;;;;;;;;;;742212;188;918897;-59
2022/12/13 00:35:32;;;;;;;24.87;16.47;;;;;;;;;;735531;190;817580;-58
2022/12/13 00:37:58;;;;;;;24.90;16.00;;;;;;;;;;742777;188;916753;-58
2022/12/13 00:40:24;;;;;;;29.87;15.97;;;;;;;;;;741650;187;918867;-60
2022/12/13 00:42:50;;;;;;;26.45;15.43;;;;;;;;;;740844;188;918982;-58
2022/12/13 00:45:16;;;;;;;22.27;13.70;;;;;;;;;;738601;187;919157;-59
2022/12/13 00:47:42;;;;;;;18.60;14.20;;;;;;;;;;743416;187;918730;-59
2022/12/13 00:50:08;;;;;;;22.37;15.90;;;;;;;;;;742434;187;916002;-59
2022/12/13 00:52:33;;;;;;;20.87;13.80;;;;;;;;;;741407;187;918846;-60
2022/12/13 00:54:59;;;;;;;17.77;10.93;;;;;;;;;;746999;185;918978;-58
2022/12/13 00:57:25;;;;;;;16.80;10.93;;;;;;;;;;742373;188;919079;-58
2022/12/13 00:59:51;;;;;;;20.43;11.27;;;;;;;;;;732909;188;919283;-59
2022/12/13 01:02:17;;;;;;;18.80;11.43;;;;;;;;;;742217;188;918974;-59
2022/12/13 01:04:43;;;;;;;16.43;11.40;;;;;;;;;;732478;189;920868;-59
2022/12/13 01:07:09;;;;;;;17.67;11.95;;;;;;;;;;742100;188;920145;-59
2022/12/13 01:09:34;;;;;;;16.67;10.60;;;;;;;;;;743740;188;849432;-59
2022/12/13 01:12:00;;;;;;;14.27;10.50;;;;;;;;;;737499;187;920565;-59
2022/12/13 01:14:26;;;;;;;16.60;9.63;;;;;;;;;;733940;189;915814;-58
2022/12/13 01:16:55;;;;;;;12.02;9.55;;;;;;;;;;743359;188;919551;-59
2022/12/13 01:19:21;;;;;;;13.30;8.90;;;;;;;;;;743644;187;817687;-59
2022/12/13 01:21:47;;;;;;;13.02;9.38;;;;;;;;;;736253;188;916382;-59
2022/12/13 01:24:14;;;;;;;13.93;8.70;;;;;;;;;;745392;188;919089;-59
2022/12/13 01:26:39;;;;;;;15.30;7.47;;;;;;;;;;751773;185;918216;-60
2022/12/13 01:29:05;;;;;;;14.27;10.27;;;;;;;;;;739038;186;919490;-59
2022/12/13 01:31:31;;;;;;;12.63;8.43;;;;;;;;;;741073;185;918204;-59
2022/12/13 01:33:57;;;;;;;13.37;8.53;;;;;;;;;;743966;188;918609;-60
2022/12/13 01:36:22;;;;;;;14.80;8.77;;;;;;;;;;742373;188;917514;-59
2022/12/13 01:38:48;;;;;;;13.80;8.57;;;;;;;;;;735370;188;919954;-59
2022/12/13 01:41:14;;;;;;;12.17;8.30;;;;;;;;;;733651;189;920821;-60
2022/12/13 01:43:55;;;;;;;13.00;7.67;;;;;;;;;;743938;187;919103;-59
2022/12/13 01:46:21;;;;;;;14.10;8.43;;;;;;;;;;742750;188;616283;-58
2022/12/13 01:48:46;;;;;;;15.90;10.33;;;;;;;;;;741886;188;919726;-59
2022/12/13 01:51:13;;;;;;;13.30;8.00;;;;;;;;;;739464;186;918010;-59
2022/12/13 01:53:38;;;;;;;12.47;8.43;;;;;;;;;;742174;188;940777;-60
2022/12/13 01:56:04;;;;;;;10.73;7.50;;;;;;;;;;740936;189;914685;-59
2022/12/13 01:58:30;;;;;;;11.00;6.97;;;;;;;;;;732898;189;919342;-60
2022/12/13 02:00:56;;;;;;;10.63;7.70;;;;;;;;;;738649;188;940693;-58
2022/12/13 02:03:22;;;;;;;12.20;7.70;;;;;;;;;;709946;195;915654;-58
2022/12/13 02:05:50;;;;;;;13.10;8.40;;;;;;;;;;741643;187;819958;-60
2022/12/13 02:08:16;;;;;;;14.20;7.43;;;;;;;;;;745712;188;913706;-60
2022/12/13 02:10:42;;;;;;;15.20;8.40;;;;;;;;;;752033;184;634641;-59
2022/12/13 02:13:08;;;;;;;14.70;9.03;;;;;;;;;;730436;189;920581;-60
2022/12/13 02:15:49;;;;;;;15.43;9.40;;;;;;;;;;735291;190;911631;-60
2022/12/13 02:18:33;;;;;;;14.90;9.83;;;;;;;;;;739450;189;617038;-61
2022/12/13 02:21:01;;;;;;;12.77;9.20;;;;;;;;;;735608;186;631242;-59
2022/12/13 02:23:27;;;;;;;13.03;9.30;;;;;;;;;;743054;187;630163;-59
2022/12/13 02:25:57;;;;;;;14.20;9.13;;;;;;;;;;743349;185;919036;-59
2022/12/13 02:28:29;;;;;;;14.57;8.33;;;;;;;;;;740492;188;919409;-59
2022/12/13 02:30:55;;;;;;;15.20;9.37;;;;;;;;;;738892;188;917218;-60
2022/12/13 02:33:21;;;;;;;13.30;9.07;;;;;;;;;;738815;188;920833;-59
2022/12/13 02:35:57;;;;;;;14.37;8.73;;;;;;;;;;737300;188;915403;-59
2022/12/13 02:38:23;;;;;;;14.07;9.53;;;;;;;;;;742516;188;920923;-60
2022/12/13 02:40:51;;;;;;;14.93;8.60;;;;;;;;;;732622;187;919342;-59
2022/12/13 02:43:17;;;;;;;19.63;9.50;;;;;;;;;;724430;193;915926;-59
2022/12/13 02:45:44;;;;;;;12.87;8.20;;;;;;;;;;746779;187;812464;-59
2022/12/13 02:48:10;;;;;;;12.73;8.13;;;;;;;;;;745376;188;918566;-60
2022/12/13 02:50:36;;;;;;;11.20;7.40;;;;;;;;;;740482;188;918313;-60
2022/12/13 02:53:01;;;;;;;11.15;7.55;;;;;;;;;;741679;187;918791;-59
2022/12/13 02:55:27;;;;;;;12.30;9.13;;;;;;;;;;731625;188;918618;-60
2022/12/13 02:57:53;;;;;;;10.40;7.10;;;;;;;;;;737523;187;919341;-59
2022/12/13 03:00:19;;;;;;;11.77;7.80;;;;;;;;;;747054;187;918376;-59
2022/12/13 03:02:47;;;;;;;9.67;7.27;;;;;;;;;;740017;189;919653;-58
2022/12/13 03:07:45;;;;;;;10.95;6.60;;;;;;;;;;735930;188;920984;-60
2022/12/13 03:10:12;;;;;;;9.60;5.80;;;;;;;;;;743559;187;920315;-59
2022/12/13 03:15:15;;;;;;;11.70;6.97;;;;;;;;;;741687;187;918919;-59
2022/12/13 03:17:40;;;;;;;12.60;7.00;;;;;;;;;;744415;187;910043;-59
2022/12/13 03:20:07;;;;;;;9.70;6.90;;;;;;;;;;735334;190;904345;-59
2022/12/13 03:22:33;;;;;;;13.17;7.30;;;;;;;;;;735775;189;817033;-60
2022/12/13 03:24:59;;;;;;;13.27;7.63;;;;;;;;;;734121;188;918609;-60
2022/12/13 03:27:24;;;;;;;11.73;7.45;;;;;;;;;;743198;188;816310;-59
2022/12/13 03:29:50;;;;;;;11.30;7.00;;;;;;;;;;737469;184;818030;-59
2022/12/13 03:32:16;;;;;;;12.55;6.65;;;;;;;;;;741799;187;918630;-59
2022/12/13 03:34:42;;;;;;;10.00;6.63;;;;;;;;;;741487;188;813827;-59
2022/12/13 03:37:08;;;;;;;9.47;7.10;;;;;;;;;;741506;188;920286;-59
2022/12/13 03:39:34;;;;;;;12.27;6.85;;;;;;;;;;731898;189;919625;-59
2022/12/13 03:42:00;;;;;;;11.07;7.30;;;;;;;;;;737358;188;945357;-59
2022/12/13 03:44:26;;;;;;;12.37;8.30;;;;;;;;;;738464;188;836276;-58
2022/12/13 03:46:52;;;;;;;12.10;7.70;;;;;;;;;;747142;187;920007;-59
2022/12/13 03:49:18;;;;;;;9.63;5.57;;;;;;;;;;744341;187;918619;-59
2022/12/13 03:51:43;;;;;;;14.40;8.63;;;;;;;;;;749551;187;919420;-59
2022/12/13 03:54:09;;;;;;;16.60;7.40;;;;;;;;;;735788;188;921896;-59
2022/12/13 03:56:35;;;;;;;13.50;7.55;;;;;;;;;;743210;188;919057;-60
2022/12/13 03:59:01;;;;;;;13.30;8.43;;;;;;;;;;741356;187;917033;-59
2022/12/13 04:01:27;;;;;;;11.77;8.03;;;;;;;;;;737451;186;919270;-59
2022/12/13 04:03:53;;;;;;;12.50;7.40;;;;;;;;;;733332;189;920745;-59
2022/12/13 04:06:18;;;;;;;14.00;7.90;;;;;;;;;;742443;188;919456;-58
2022/12/13 04:08:44;;;;;;;13.97;8.03;;;;;;;;;;743296;187;944680;-59
2022/12/13 04:13:42;;;;;;;9.93;6.70;;;;;;;;;;738204;187;923734;-60
2022/12/13 04:16:08;;;;;;;10.73;7.90;;;;;;;;;;737985;189;918651;-60
2022/12/13 04:18:33;;;;;;;11.37;7.07;;;;;;;;;;730471;191;918851;-59
2022/12/13 04:20:59;;;;;;;11.60;7.07;;;;;;;;;;740071;188;919151;-59
2022/12/13 04:23:25;;;;;;;11.27;6.27;;;;;;;;;;737035;187;919638;-60
2022/12/13 04:25:51;;;;;;;11.70;6.87;;;;;;;;;;734772;187;918578;-60
2022/12/13 04:28:17;;;;;;;13.20;8.57;;;;;;;;;;739734;188;919110;-60
2022/12/13 04:30:43;;;;;;;14.80;9.38;;;;;;;;;;737936;188;901088;-59
2022/12/13 04:33:08;;;;;;;11.90;7.50;;;;;;;;;;743586;186;915688;-59
2022/12/13 04:35:34;;;;;;;11.87;7.67;;;;;;;;;;739003;188;918965;-59
2022/12/13 04:38:00;;;;;;;14.17;8.57;;;;;;;;;;740112;188;918031;-60
2022/12/13 04:40:26;;;;;;;9.67;6.20;;;;;;;;;;742146;188;921601;-59
2022/12/13 04:42:53;;;;;;;14.45;8.48;;;;;;;;;;741543;188;943547;-60
2022/12/13 04:45:18;;;;;;;13.60;8.93;;;;;;;;;;742752;188;918258;-59
2022/12/13 04:47:43;;;;;;;17.95;10.00;;;;;;;;;;744522;189;922460;-60
2022/12/13 04:50:09;;;;;;;15.03;9.63;;;;;;;;;;734789;187;921714;-59
2022/12/13 04:52:36;;;;;;;14.10;8.70;;;;;;;;;;740447;187;818642;-59
2022/12/13 04:55:01;;;;;;;14.95;9.93;;;;;;;;;;739501;188;919043;-60
2022/12/13 04:57:27;;;;;;;14.03;8.60;;;;;;;;;;742906;184;919587;-59
2022/12/13 04:59:53;;;;;;;14.50;8.70;;;;;;;;;;730606;188;927245;-59
2022/12/13 05:02:19;;;;;;;18.55;9.55;;;;;;;;;;740551;186;918923;-60
2022/12/13 05:04:44;;;;;;;15.13;8.00;;;;;;;;;;744055;188;813738;-59
2022/12/13 05:07:10;;;;;;;13.47;9.00;;;;;;;;;;740447;187;919220;-59
2022/12/13 05:09:36;;;;;;;18.53;12.03;;;;;;;;;;740479;187;918023;-59
2022/12/13 05:12:02;;;;;;;19.27;11.60;;;;;;;;;;730312;191;919358;-59
2022/12/13 05:14:29;;;;;;;15.67;11.23;;;;;;;;;;738115;188;918692;-59
2022/12/13 05:16:54;;;;;;;15.73;9.13;;;;;;;;;;737276;187;903312;-60
2022/12/13 05:19:20;;;;;;;13.67;9.83;;;;;;;;;;742127;187;919278;-59
2022/12/13 05:21:46;;;;;;;14.50;8.80;;;;;;;;;;739725;188;916871;-61
2022/12/13 05:24:12;;;;;;;14.10;8.87;;;;;;;;;;744434;187;919350;-60
2022/12/13 05:26:38;;;;;;;13.07;8.60;;;;;;;;;;737917;188;625402;-60
2022/12/13 05:29:04;;;;;;;12.63;8.03;;;;;;;;;;739561;188;815956;-59
2022/12/13 05:31:29;;;;;;;15.80;8.63;;;;;;;;;;737433;188;918156;-59
2022/12/13 05:33:55;;;;;;;14.93;10.27;;;;;;;;;;734064;188;920304;-60
2022/12/13 05:36:24;;;;;;;16.90;10.07;;;;;;;;;;744721;187;865181;-60
2022/12/13 05:38:47;;;;;;;18.07;11.37;;;;;;;;;;740733;188;825927;-58
2022/12/13 05:41:13;;;;;;;21.97;9.57;;;;;;;;;;736974;188;879346;-59
2022/12/13 05:43:39;;;;;;;17.93;10.23;;;;;;;;;;741625;188;919630;-59
2022/12/13 05:46:05;;;;;;;14.90;10.17;;;;;;;;;;737931;188;789193;-60
2022/12/13 05:48:31;;;;;;;16.62;9.82;;;;;;;;;;737403;188;910486;-60
2022/12/13 05:50:57;;;;;;;15.00;9.50;;;;;;;;;;736879;188;620259;-60
2022/12/13 05:53:23;;;;;;;17.23;10.57;;;;;;;;;;741689;190;815856;-59
2022/12/13 05:55:49;;;;;;;18.00;10.73;;;;;;;;;;732014;188;819628;-61
2022/12/13 05:58:15;;;;;;;17.40;11.10;;;;;;;;;;740224;188;823204;-60
2022/12/13 06:00:41;;;;;;;15.57;11.23;;;;;;;;;;739329;187;919243;-60
2022/12/13 06:03:07;;;;;;;15.90;10.17;;;;;;;;;;737394;187;916008;-59
2022/12/13 06:05:33;;;;;;;19.97;11.83;;;;;;;;;;741181;188;920771;-61
2022/12/13 06:07:59;;;;;;;17.33;10.68;;;;;;;;;;749074;187;808438;-59
2022/12/13 06:10:24;;;;;;;20.60;12.03;;;;;;;;;;739750;188;921786;-60
2022/12/13 06:12:50;;;;;;;16.60;11.00;;;;;;;;;;741320;188;918803;-59
2022/12/13 06:15:16;;;;;;;16.60;11.90;;;;;;;;;;734597;187;1021452;-60
2022/12/13 06:17:42;;;;;;;15.10;9.30;;;;;;;;;;752481;184;923098;-60
2022/12/13 06:20:08;;;;;;;17.67;10.63;;;;;;;;;;744349;185;1049190;-59
2022/12/13 06:22:34;;;;;;;23.10;11.67;;;;;;;;;;737612;188;921861;-59
2022/12/13 06:25:00;;;;;;;21.23;12.83;;;;;;;;;;745604;187;918978;-58
2022/12/13 06:27:26;;;;;;;17.33;11.40;;;;;;;;;;733905;187;917460;-60
2022/12/13 06:29:52;;;;;;;21.40;13.45;;;;;;;;;;736394;187;1023250;-60
2022/12/13 06:32:17;;;;;;;23.83;12.83;;;;;;;;;;734416;188;921312;-59
2022/12/13 06:34:43;;;;;;;19.20;13.10;;;;;;;;;;737613;188;814839;-59
2022/12/13 06:37:09;;;;;;;15.87;11.90;;;;;;;;;;735754;187;816207;-58
2022/12/13 06:39:35;;;;;;;17.87;11.37;;;;;;;;;;745429;187;921401;-60
2022/12/13 06:42:01;;;;;;;18.12;10.73;;;;;;;;;;742657;187;815714;-59
2022/12/13 06:44:27;;;;;;;18.03;10.53;;;;;;;;;;744819;187;919294;-60
2022/12/13 06:46:53;;;;;;;16.83;10.33;;;;;;;;;;735570;188;918928;-59
2022/12/13 06:49:18;;;;;;;15.97;10.30;;;;;;;;;;747707;187;917329;-59
2022/12/13 06:51:45;;;;;;;16.00;8.77;;;;;;;;;;729475;188;938720;-59
2022/12/13 06:54:10;;;;;;;19.50;10.98;;;;;;;;;;733259;188;908385;-60
2022/12/13 06:56:36;;;;;;;15.93;9.93;;;;;;;;;;738129;189;931357;-59
2022/12/13 06:59:02;;;;;;;17.23;11.07;;;;;;;;;;741791;187;919379;-59
2022/12/13 07:01:28;;;;;;;16.75;10.02;;;;;;;;;;737111;188;919060;-59
2022/12/13 07:03:54;;;;;;;15.50;10.43;;;;;;;;;;746802;188;918625;-60
2022/12/13 07:06:19;;;;;;;13.80;9.97;;;;;;;;;;729298;189;919601;-58
2022/12/13 07:08:47;;;;;;;15.80;10.23;;;;;;;;;;737570;188;818395;-59
2022/12/13 07:11:13;;;;;;;20.70;11.48;;;;;;;;;;734837;188;918759;-59
2022/12/13 07:13:39;;;;;;;18.73;11.70;;;;;;;;;;740609;188;920917;-59
2022/12/13 07:16:05;;;;;;;20.00;11.40;;;;;;;;;;737881;188;920995;-59
2022/12/13 07:18:31;;;;;;;30.10;17.87;;;;;;;;;;735116;187;918396;-58
2022/12/13 07:20:57;;;;;;;17.90;10.83;;;;;;;;;;738032;187;919420;-59
2022/12/13 07:23:22;;;;;;;18.90;11.50;;;;;;;;;;720471;191;919874;-59
2022/12/13 07:25:52;;;;;;;33.40;17.20;;;;;;;;;;735962;189;918362;-59
2022/12/13 07:28:17;;;;;;;51.43;23.50;;;;;;;;;;739225;188;919278;-59
2022/12/13 07:30:43;;;;;;;50.57;23.60;;;;;;;;;;745088;187;1015085;-58
2022/12/13 07:33:09;;;;;;;44.93;22.30;;;;;;;;;;747111;187;816513;-59
2022/12/13 07:35:35;;;;;;;40.20;20.40;;;;;;;;;;747842;188;918522;-61
2022/12/13 07:38:00;;;;;;;23.87;14.20;;;;;;;;;;743843;187;919692;-60
2022/12/13 07:40:26;;;;;;;28.57;12.73;;;;;;;;;;741506;187;921799;-61
2022/12/13 07:42:52;;;;;;;31.73;16.73;;;;;;;;;;736161;187;890684;-60
2022/12/13 07:45:18;;;;;;;32.00;16.33;;;;;;;;;;744197;187;920513;-60
2022/12/13 07:47:44;;;;;;;31.17;16.40;;;;;;;;;;735633;188;918368;-60
2022/12/13 07:50:11;;;;;;;30.00;15.53;;;;;;;;;;737230;188;1018465;-59
2022/12/13 07:52:37;;;;;;;28.80;14.60;;;;;;;;;;724455;191;919524;-60
2022/12/13 07:55:03;;;;;;;29.50;13.90;;;;;;;;;;741700;190;919318;-60
2022/12/13 07:57:28;;;;;;;27.57;13.97;;;;;;;;;;743863;188;835576;-60
2022/12/13 07:59:54;;;;;;;25.10;15.03;;;;;;;;;;744592;188;919219;-60
2022/12/13 08:02:20;;;;;;;31.53;16.47;;;;;;;;;;749624;187;816942;-59
2022/12/13 08:04:46;;;;;;;32.10;17.00;;;;;;;;;;737457;188;818587;-61
2022/12/13 08:07:12;;;;;;;38.50;18.85;;;;;;;;;;737228;188;917705;-63
2022/12/13 08:09:38;;;;;;;46.40;20.07;;;;;;;;;;741090;188;816392;-60
2022/12/13 08:12:04;;;;;;;35.17;18.50;;;;;;;;;;736282;188;919113;-60
2022/12/13 08:14:30;;;;;;;32.03;18.33;;;;;;;;;;738365;188;889855;-60
2022/12/13 08:16:56;;;;;;;36.03;19.87;;;;;;;;;;741410;187;919646;-60
2022/12/13 08:19:21;;;;;;;36.20;17.50;;;;;;;;;;735556;188;824483;-60
2022/12/13 08:21:47;;;;;;;25.23;14.70;;;;;;;;;;743795;186;916143;-60
2022/12/13 08:24:13;;;;;;;24.43;13.87;;;;;;;;;;739419;189;817038;-60
2022/12/13 08:26:39;;;;;;;19.80;12.60;;;;;;;;;;729423;190;912669;-62
2022/12/13 08:29:05;;;;;;;25.10;13.60;;;;;;;;;;737103;189;912715;-60
2022/12/13 08:31:31;;;;;;;21.48;11.95;;;;;;;;;;735808;188;812938;-64
2022/12/13 08:33:57;;;;;;;29.10;11.50;;;;;;;;;;736170;187;919394;-60
2022/12/13 08:36:23;;;;;;;22.70;11.97;;;;;;;;;;736466;185;948042;-61
2022/12/13 08:38:52;;;;;;;17.90;11.33;;;;;;;;;;735128;186;916383;-60
2022/12/13 08:41:15;;;;;;;25.03;12.17;;;;;;;;;;735972;189;910217;-62
2022/12/13 08:43:41;;;;;;;24.10;14.53;;;;;;;;;;741921;188;915017;-60
2022/12/13 08:46:07;;;;;;;23.23;13.37;;;;;;;;;;741044;188;923801;-63
2022/12/13 08:48:33;;;;;;;27.03;14.20;;;;;;;;;;737138;188;919518;-62
2022/12/13 08:50:58;;;;;;;27.20;14.63;;;;;;;;;;740997;188;819973;-62
2022/12/13 08:53:25;;;;;;;30.03;14.23;;;;;;;;;;734354;189;916395;-60
2022/12/13 08:55:50;;;;;;;22.23;13.63;;;;;;;;;;733049;189;918252;-62
2022/12/13 08:58:16;;;;;;;28.00;15.23;;;;;;;;;;735442;189;919179;-63
2022/12/13 09:00:44;;;;;;;25.13;13.50;;;;;;;;;;739788;188;902071;-62
2022/12/13 09:03:08;;;;;;;22.90;13.30;;;;;;;;;;737702;188;918074;-62
2022/12/13 09:05:34;;;;;;;23.70;15.00;;;;;;;;;;748872;187;919311;-62
2022/12/13 09:08:01;;;;;;;22.60;14.63;;;;;;;;;;730956;188;917014;-62
2022/12/13 09:10:25;;;;;;;21.60;12.53;;;;;;;;;;740286;187;918664;-61
2022/12/13 09:12:52;;;;;;;19.00;13.60;;;;;;;;;;735658;188;918908;-62
2022/12/13 09:15:18;;;;;;;21.33;14.23;;;;;;;;;;735730;189;918889;-62
2022/12/13 09:17:44;;;;;;;20.30;12.90;;;;;;;;;;739333;188;928080;-62
2022/12/13 09:20:10;;;;;;;20.00;11.83;;;;;;;;;;736037;190;919118;-62
2022/12/13 09:22:36;;;;;;;24.30;14.57;;;;;;;;;;734598;191;820155;-62
2022/12/13 09:25:02;;;;;;;22.63;12.80;;;;;;;;;;731232;191;919074;-62
2022/12/13 09:27:29;;;;;;;23.40;13.60;;;;;;;;;;744631;186;919187;-62
2022/12/13 09:29:54;;;;;;;19.70;13.30;;;;;;;;;;739517;190;821660;-62
2022/12/13 09:32:21;;;;;;;21.70;13.03;;;;;;;;;;737152;188;919634;-62
2022/12/13 09:34:46;;;;;;;17.67;11.47;;;;;;;;;;735582;187;918901;-61
2022/12/13 09:37:12;;;;;;;19.37;12.60;;;;;;;;;;742758;187;916201;-62
2022/12/13 09:39:38;;;;;;;18.20;12.35;;;;;;;;;;743555;187;817368;-61
2022/12/13 09:42:04;;;;;;;17.60;10.87;;;;;;;;;;738313;187;916288;-62
2022/12/13 09:44:32;;;;;;;14.90;10.20;;;;;;;;;;737713;188;940038;-62
2022/12/13 09:46:58;;;;;;;15.50;9.50;;;;;;;;;;742707;185;940111;-62
2022/12/13 09:49:24;;;;;;;15.70;9.57;;;;;;;;;;744198;186;919886;-61
2022/12/13 09:51:51;;;;;;;14.77;9.80;;;;;;;;;;739466;187;913214;-61
2022/12/13 09:54:17;;;;;;;16.87;10.53;;;;;;;;;;749002;187;817988;-62
2022/12/13 09:56:43;;;;;;;16.73;10.03;;;;;;;;;;736575;187;918543;-62
2022/12/13 09:59:10;;;;;;;16.63;9.80;;;;;;;;;;740820;187;919055;-62
2022/12/13 10:01:35;;;;;;;19.20;12.23;;;;;;;;;;735681;187;930105;-62
2022/12/13 10:04:01;;;;;;;19.80;10.70;;;;;;;;;;748126;188;911206;-62
2022/12/13 10:06:27;;;;;;;16.97;8.97;;;;;;;;;;743514;188;919515;-61
2022/12/13 10:08:54;;;;;;;15.10;9.60;;;;;;;;;;742472;187;919425;-62
2022/12/13 10:11:20;;;;;;;16.27;9.70;;;;;;;;;;746391;187;924186;-61
2022/12/13 10:13:45;;;;;;;17.90;10.33;;;;;;;;;;738834;188;831102;-60
2022/12/13 10:16:13;;;;;;;14.10;9.00;;;;;;;;;;729433;192;917877;-61
2022/12/13 10:18:39;;;;;;;20.47;10.73;;;;;;;;;;734788;188;918800;-62
2022/12/13 10:21:07;;;;;;;17.07;10.60;;;;;;;;;;740985;187;849021;-61
2022/12/13 10:23:32;;;;;;;14.70;10.40;;;;;;;;;;742830;187;920302;-61
2022/12/13 10:25:58;;;;;;;18.00;11.83;;;;;;;;;;739054;189;920025;-60
2022/12/13 10:28:26;;;;;;;19.30;11.45;;;;;;;;;;743368;188;816141;-61
2022/12/13 10:30:52;;;;;;;14.57;9.57;;;;;;;;;;735601;188;921532;-60
2022/12/13 10:33:21;;;;;;;19.30;10.10;;;;;;;;;;738209;187;838272;-62
2022/12/13 10:35:47;;;;;;;17.03;10.33;;;;;;;;;;734984;188;917733;-61
2022/12/13 10:38:23;;;;;;;17.37;9.33;;;;;;;;;;740942;188;798139;-61
2022/12/13 10:40:49;;;;;;;18.87;9.30;;;;;;;;;;741550;188;815687;-61
2022/12/13 10:43:16;;;;;;;16.93;10.87;;;;;;;;;;735098;191;832319;-61
2022/12/13 10:45:41;;;;;;;16.37;9.20;;;;;;;;;;740682;188;912616;-62
2022/12/13 10:48:08;;;;;;;15.97;9.77;;;;;;;;;;736837;187;912898;-61
2022/12/13 10:50:35;;;;;;;13.47;8.30;;;;;;;;;;723963;191;880585;-61
2022/12/13 10:53:00;;;;;;;15.20;8.93;;;;;;;;;;734812;188;920946;-60
2022/12/13 10:55:27;;;;;;;11.97;7.80;;;;;;;;;;745682;188;846832;-61
2022/12/13 10:57:53;;;;;;;9.33;5.23;;;;;;;;;;736595;188;948961;-61
2022/12/13 11:00:35;;;;;;;8.00;4.90;;;;;;;;;;732603;188;915734;-61
2022/12/13 11:03:01;;;;;;;7.90;5.80;;;;;;;;;;733854;189;816878;-61
2022/12/13 11:05:27;;;;;;;9.07;5.40;;;;;;;;;;752915;186;761318;-61
2022/12/13 11:07:54;;;;;;;6.67;4.30;;;;;;;;;;738389;187;916196;-60
2022/12/13 11:10:20;;;;;;;8.90;3.87;;;;;;;;;;740050;188;631413;-60
2022/12/13 11:12:46;;;;;;;6.20;4.10;;;;;;;;;;721493;192;716224;-60
2022/12/13 11:15:13;;;;;;;8.10;4.60;;;;;;;;;;741327;188;817938;-60
2022/12/13 11:17:38;;;;;;;9.27;4.60;;;;;;;;;;751543;187;626722;-60
2022/12/13 11:20:05;;;;;;;7.80;4.43;;;;;;;;;;740033;187;815594;-60
2022/12/13 11:22:31;;;;;;;9.47;6.60;;;;;;;;;;731976;189;875215;-60
2022/12/13 11:24:58;;;;;;;5.87;3.90;;;;;;;;;;732315;187;851327;-60
2022/12/13 11:27:28;;;;;;;8.43;4.13;;;;;;;;;;738092;189;630112;-60
2022/12/13 11:29:55;;;;;;;6.50;4.00;;;;;;;;;;733334;188;919237;-60
2022/12/13 11:32:22;;;;;;;7.20;4.53;;;;;;;;;;735899;189;622988;-60
2022/12/13 11:34:53;;;;;;;6.70;3.47;;;;;;;;;;736253;189;922431;-60
2022/12/13 11:37:19;;;;;;;6.73;3.97;;;;;;;;;;747416;187;622622;-60
2022/12/13 11:39:46;;;;;;;4.67;3.43;;;;;;;;;;736014;191;918189;-60
2022/12/13 11:42:17;;;;;;;6.57;4.60;;;;;;;;;;736192;191;919404;-61
2022/12/13 11:44:59;;;;;;;5.97;3.90;;;;;;;;;;743139;187;919039;-61
2022/12/13 11:47:40;;;;;;;8.23;4.37;;;;;;;;;;734781;189;920257;-60
2022/12/13 11:50:06;;;;;;;10.63;4.77;;;;;;;;;;713534;192;913118;-61
2022/12/13 11:52:34;;;;;;;7.10;4.20;;;;;;;;;;725906;190;920784;-62
2022/12/13 11:55:00;;;;;;;8.43;5.63;;;;;;;;;;747537;188;919484;-61
2022/12/13 11:57:26;;;;;;;8.17;5.23;;;;;;;;;;739438;188;919369;-61
2022/12/13 11:59:52;;;;;;;8.70;5.53;;;;;;;;;;733866;190;920310;-61
2022/12/13 12:02:20;;;;;;;7.12;4.90;;;;;;;;;;742917;188;911273;-62
2022/12/13 12:04:44;;;;;;;7.80;5.80;;;;;;;;;;750283;187;911209;-63
2022/12/13 12:07:13;;;;;;;8.00;4.17;;;;;;;;;;744357;184;912347;-62
2022/12/13 12:09:39;;;;;;;11.10;6.43;;;;;;;;;;734446;188;1042548;-63
2022/12/13 12:12:06;;;;;;;8.10;4.60;;;;;;;;;;744999;187;910350;-65
2022/12/13 12:14:48;;;;;;;8.60;5.60;;;;;;;;;;736254;187;909336;-63
2022/12/13 12:17:13;;;;;;;7.83;5.40;;;;;;;;;;729205;188;918040;-63
2022/12/13 12:19:39;;;;;;;5.60;4.67;;;;;;;;;;745394;187;920041;-62
2022/12/13 12:22:08;;;;;;;10.15;5.72;;;;;;;;;;740782;189;918504;-68
2022/12/13 12:24:35;;;;;;;7.60;4.93;;;;;;;;;;743665;188;918591;-63
2022/12/13 12:27:06;;;;;;;9.15;5.43;;;;;;;;;;743666;188;909793;-63
2022/12/13 12:29:38;;;;;;;8.70;5.10;;;;;;;;;;742779;187;918136;-61
2022/12/13 12:32:08;;;;;;;8.03;4.73;;;;;;;;;;737684;187;1018162;-63
2022/12/13 12:34:48;;;;;;;8.20;4.73;;;;;;;;;;737538;191;915489;-63
2022/12/13 12:37:14;;;;;;;7.20;4.80;;;;;;;;;;749970;184;919226;-63
2022/12/13 12:39:43;;;;;;;7.17;4.40;;;;;;;;;;752847;184;919554;-62
2022/12/13 12:42:09;;;;;;;10.60;5.20;;;;;;;;;;749242;187;922032;-63
2022/12/13 12:44:46;;;;;;;8.43;4.90;;;;;;;;;;739334;188;818417;-63
2022/12/13 12:47:18;;;;;;;7.77;4.50;;;;;;;;;;749824;187;918606;-61
2022/12/13 12:49:49;;;;;;;7.57;4.43;;;;;;;;;;737974;187;918341;-62
2022/12/13 12:52:15;;;;;;;8.57;4.80;;;;;;;;;;742073;187;917309;-61
2022/12/13 12:54:42;;;;;;;7.80;4.80;;;;;;;;;;739775;187;881530;-62
2022/12/13 12:57:23;;;;;;;6.73;4.63;;;;;;;;;;745593;188;817178;-61
2022/12/13 12:59:49;;;;;;;7.00;4.77;;;;;;;;;;752817;187;821506;-61
2022/12/13 13:02:16;;;;;;;10.23;4.90;;;;;;;;;;744116;187;815954;-60
2022/12/13 13:04:42;;;;;;;7.87;5.10;;;;;;;;;;740464;187;917059;-61
2022/12/13 13:07:09;;;;;;;9.40;4.83;;;;;;;;;;748468;185;917273;-60
2022/12/13 13:09:35;;;;;;;7.20;4.53;;;;;;;;;;727017;189;850018;-60
2022/12/13 13:12:01;;;;;;;7.17;4.83;;;;;;;;;;744379;188;944514;-60
2022/12/13 13:14:27;;;;;;;8.10;4.83;;;;;;;;;;733003;188;918909;-60
2022/12/13 13:16:54;;;;;;;9.23;5.17;;;;;;;;;;753968;183;822803;-60
2022/12/13 13:19:33;;;;;;;9.30;5.63;;;;;;;;;;741670;188;919190;-60
2022/12/13 13:21:59;;;;;;;7.77;4.70;;;;;;;;;;733808;188;918829;-60
2022/12/13 13:24:25;;;;;;;9.23;5.43;;;;;;;;;;745366;186;920864;-60
2022/12/13 13:26:51;;;;;;;7.10;4.77;;;;;;;;;;749139;188;921250;-60
2022/12/13 13:29:20;;;;;;;10.40;5.77;;;;;;;;;;736185;188;921691;-58
2022/12/13 13:31:55;;;;;;;9.23;5.40;;;;;;;;;;741804;188;1027895;-59
2022/12/13 13:34:22;;;;;;;10.80;5.57;;;;;;;;;;739965;188;914333;-60
2022/12/13 13:36:51;;;;;;;8.70;5.37;;;;;;;;;;744108;189;796601;-60
2022/12/13 13:39:18;;;;;;;10.00;6.23;;;;;;;;;;737299;189;919343;-60
2022/12/13 13:41:48;;;;;;;13.33;6.67;;;;;;;;;;734560;187;919592;-60
2022/12/13 13:44:30;;;;;;;14.80;7.63;;;;;;;;;;736914;188;919093;-59
2022/12/13 13:47:03;;;;;;;12.93;7.30;;;;;;;;;;744879;186;919272;-59
2022/12/13 13:49:29;;;;;;;13.07;8.13;;;;;;;;;;735951;188;916593;-59
2022/12/13 13:52:10;;;;;;;17.10;8.30;;;;;;;;;;736304;188;913150;-59
2022/12/13 13:54:51;;;;;;;13.60;8.30;;;;;;;;;;730044;189;810288;-59
2022/12/13 13:57:18;;;;;;;18.40;10.43;;;;;;;;;;733752;188;918848;-59
2022/12/13 13:59:43;;;;;;;18.60;11.60;;;;;;;;;;735730;187;1018902;-58
2022/12/13 14:02:19;;;;;;;22.67;11.90;;;;;;;;;;744442;187;919212;-58
2022/12/13 14:05:01;;;;;;;19.63;11.77;;;;;;;;;;739947;189;918145;-58
2022/12/13 14:07:33;;;;;;;14.63;9.33;;;;;;;;;;749538;187;921365;-59
2022/12/13 14:09:59;;;;;;;18.05;9.82;;;;;;;;;;735143;188;919233;-58
2022/12/13 14:12:30;;;;;;;16.23;9.93;;;;;;;;;;737464;188;914539;-58
2022/12/13 14:15:15;;;;;;;16.30;10.23;;;;;;;;;;734821;188;919260;-59
2022/12/13 14:17:42;;;;;;;15.60;9.53;;;;;;;;;;743826;186;918418;-58
2022/12/13 14:20:11;;;;;;;15.80;9.77;;;;;;;;;;741353;187;918953;-58